Time;durP1;ratioP1;P1;durP2;ratioP2;P2;SDS_P1;SDS_P2;PMS_P1;PMS_P2;Temp;Humidity;BMP_temperature;BMP_pressure;BME280_temperature;BME280_humidity;BME280_pressure;Samples;Min_cycle;Max_cycle;Signal;HPM_P1;HPM_P2
2022/04/21 00:00:07;;;;;;;11.15;6.45;;;8.20;99.90;;;;;;5078773;28;20048;-68
2022/04/21 00:02:33;;;;;;;12.25;6.43;;;8.40;99.90;;;;;;5079111;28;20113;-68
2022/04/21 00:04:59;;;;;;;10.80;6.65;;;8.40;99.90;;;;;;5096995;28;20070;-68
2022/04/21 00:07:25;;;;;;;10.57;5.97;;;8.30;99.90;;;;;;5062366;28;20040;-68
2022/04/21 00:09:51;;;;;;;10.27;6.68;;;8.40;99.90;;;;;;5096874;28;20036;-68
2022/04/21 00:12:17;;;;;;;10.95;6.80;;;8.30;99.90;;;;;;5078324;28;20047;-68
2022/04/21 00:14:43;;;;;;;9.65;6.57;;;8.40;99.90;;;;;;5096828;28;20043;-68
2022/04/21 00:17:08;;;;;;;8.20;5.95;;;8.30;99.90;;;;;;5079435;28;20125;-68
2022/04/21 00:19:35;;;;;;;11.20;5.97;;;8.40;99.90;;;;;;5078589;28;20044;-68
2022/04/21 00:24:45;;;;;;;9.70;7.03;;;8.50;99.90;;;;;;5096672;28;20058;-68
2022/04/21 00:27:11;;;;;;;9.20;6.63;;;8.30;99.90;;;;;;5044790;28;20047;-68
2022/04/21 00:29:38;;;;;;;10.50;6.78;;;8.30;99.90;;;;;;5078996;28;20390;-68
2022/04/21 00:32:04;;;;;;;9.20;6.70;;;8.50;99.90;;;;;;5078385;28;20119;-68
2022/04/21 00:34:31;;;;;;;10.15;6.53;;;8.30;99.90;;;;;;5096452;28;20124;-68
2022/04/21 00:36:57;;;;;;;12.50;7.10;;;8.80;99.90;;;;;;5096414;28;20052;-68
2022/04/21 00:39:22;;;;;;;8.98;6.43;;;8.30;99.90;;;;;;5061868;28;20433;-69
2022/04/21 00:41:48;;;;;;;9.38;7.00;;;8.60;99.90;;;;;;5096564;28;20122;-68
2022/04/21 00:44:14;;;;;;;9.82;7.00;;;8.40;99.90;;;;;;5097100;28;20052;-68
2022/04/21 00:46:41;;;;;;;12.55;6.65;;;8.70;99.90;;;;;;5096522;28;20388;-68
2022/04/21 00:49:08;;;;;;;11.40;7.30;;;8.30;99.90;;;;;;5078320;28;20059;-68
2022/04/21 00:51:35;;;;;;;11.18;7.20;;;8.20;99.90;;;;;;5077788;28;20392;-68
2022/04/21 00:54:01;;;;;;;12.07;7.60;;;8.30;99.90;;;;;;5096048;28;20059;-68
2022/04/21 00:56:26;;;;;;;9.93;6.30;;;8.20;99.90;;;;;;5095682;28;20040;-68
2022/04/21 00:58:54;;;;;;;9.35;5.95;;;8.10;99.90;;;;;;5077927;28;20185;-68
2022/04/21 01:04:05;;;;;;;9.27;6.07;;;8.30;99.90;;;;;;5080666;28;20506;-68
2022/04/21 01:06:31;;;;;;;10.63;6.57;;;8.40;99.90;;;;;;5096391;28;20044;-68
2022/04/21 01:08:56;;;;;;;8.88;6.40;;;8.40;99.90;;;;;;5095738;28;20048;-68
2022/04/21 01:11:22;;;;;;;9.40;6.47;;;8.20;99.90;;;;;;5077702;28;20044;-68
2022/04/21 01:13:49;;;;;;;11.20;6.72;;;8.10;99.90;;;;;;5078058;28;20052;-68
2022/04/21 01:16:14;;;;;;;9.75;7.18;;;8.30;99.90;;;;;;5095638;28;20080;-68
2022/04/21 01:18:43;;;;;;;9.55;6.82;;;8.10;99.90;;;;;;5077538;28;20087;-68
2022/04/21 01:21:08;;;;;;;13.32;7.95;;;8.20;99.90;;;;;;5077474;28;20441;-68
2022/04/21 01:23:34;;;;;;;10.77;7.07;;;8.50;99.90;;;;;;5095569;28;20079;-68
2022/04/21 01:26:01;;;;;;;8.68;6.57;;;8.10;99.90;;;;;;5095948;28;20398;-68
2022/04/21 01:28:29;;;;;;;11.35;6.97;;;8.20;99.90;;;;;;5095344;28;20060;-68
2022/04/21 01:30:55;;;;;;;11.52;6.95;;;8.40;99.90;;;;;;5078075;28;20040;-68
2022/04/21 01:33:21;;;;;;;11.10;7.82;;;8.50;99.90;;;;;;5077550;28;20440;-68
2022/04/21 01:35:47;;;;;;;11.85;8.18;;;8.30;99.90;;;;;;5077687;28;20079;-68
2022/04/21 01:41:09;;;;;;;13.48;7.72;;;8.60;99.90;;;;;;5095165;28;20495;-68
2022/04/21 01:43:35;;;;;;;11.98;7.97;;;8.30;99.90;;;;;;5095711;28;20040;-68
2022/04/21 01:46:01;;;;;;;10.50;7.03;;;8.40;99.90;;;;;;5095069;28;20048;-68
2022/04/21 01:48:27;;;;;;;10.45;7.32;;;8.30;99.90;;;;;;5077233;28;20086;-68
2022/04/21 01:50:52;;;;;;;13.65;7.18;;;8.70;99.90;;;;;;5095046;28;20084;-68
2022/04/21 01:53:18;;;;;;;11.25;6.85;;;8.70;99.90;;;;;;5094936;28;20044;-69
2022/04/21 01:55:44;;;;;;;11.35;6.65;;;8.60;99.90;;;;;;5094721;28;20059;-68
2022/04/21 01:58:10;;;;;;;10.75;7.57;;;8.40;99.90;;;;;;5077270;28;20541;-68
2022/04/21 02:00:36;;;;;;;7.88;6.35;;;8.60;99.90;;;;;;5095048;28;20119;-68
2022/04/21 02:03:02;;;;;;;10.15;6.85;;;8.30;99.90;;;;;;5076686;28;20539;-69
2022/04/21 02:05:27;;;;;;;9.73;6.47;;;8.20;99.90;;;;;;5076562;28;20051;-69
2022/04/21 02:07:54;;;;;;;9.93;6.90;;;8.70;99.90;;;;;;5076584;28;20040;-69
2022/04/21 02:10:24;;;;;;;11.48;6.97;;;9.40;99.90;;;;;;5076797;28;20044;-69
2022/04/21 02:12:50;;;;;;;10.88;6.90;;;8.20;99.90;;;;;;5094510;28;20047;-68
2022/04/21 02:15:19;;;;;;;10.27;6.72;;;8.20;99.90;;;;;;5076698;28;20118;-69
2022/04/21 02:17:45;;;;;;;9.32;6.47;;;8.30;99.90;;;;;;5076780;28;20391;-69
2022/04/21 02:20:16;;;;;;;9.55;6.22;;;8.30;99.90;;;;;;5094897;28;20119;-70
2022/04/21 02:22:45;;;;;;;8.95;6.53;;;8.10;99.90;;;;;;5095227;28;20076;-69
2022/04/21 02:25:12;;;;;;;9.88;6.72;;;8.10;99.90;;;;;;5094295;28;20051;-68
2022/04/21 02:27:40;;;;;;;10.45;6.53;;;8.20;99.90;;;;;;5059637;28;20095;-68
2022/04/21 02:30:08;;;;;;;8.68;6.15;;;8.20;99.90;;;;;;5076324;28;20197;-68
2022/04/21 02:32:34;;;;;;;9.10;6.05;;;8.00;99.90;;;;;;5076300;28;20056;-69
2022/04/21 02:35:01;;;;;;;9.07;6.18;;;7.90;99.90;;;;;;5076372;28;20055;-68
2022/04/21 02:37:26;;;;;;;8.32;6.00;;;8.10;99.90;;;;;;5094118;28;20063;-68
2022/04/21 02:39:52;;;;;;;8.60;6.38;;;8.20;99.90;;;;;;5094042;28;20048;-68
2022/04/21 02:42:21;;;;;;;7.68;6.03;;;8.50;99.90;;;;;;5094071;28;20044;-68
2022/04/21 02:44:50;;;;;;;9.55;6.00;;;8.00;99.90;;;;;;5093998;28;20036;-68
2022/04/21 02:47:17;;;;;;;6.43;5.03;;;8.10;99.90;;;;;;5075929;28;20054;-68
2022/04/21 02:49:47;;;;;;;8.05;5.28;;;7.90;99.90;;;;;;5094464;28;20131;-68
2022/04/21 02:52:13;;;;;;;8.77;5.22;;;8.20;99.90;;;;;;5058700;28;20051;-68
2022/04/21 02:57:25;;;;;;;7.38;5.70;;;7.90;99.90;;;;;;5094551;28;20120;-67
2022/04/21 02:59:53;;;;;;;10.98;6.30;;;8.00;99.90;;;;;;5075692;28;20062;-68
2022/04/21 03:02:20;;;;;;;9.63;6.32;;;7.80;99.90;;;;;;5094609;28;20040;-68
2022/04/21 03:04:46;;;;;;;7.45;5.80;;;7.80;99.90;;;;;;5075834;28;20078;-68
2022/04/21 03:07:14;;;;;;;10.02;5.68;;;7.80;99.90;;;;;;5076671;28;20483;-68
2022/04/21 03:09:43;;;;;;;7.68;5.18;;;7.80;99.90;;;;;;5075706;28;20087;-68
2022/04/21 03:12:09;;;;;;;8.38;5.72;;;8.10;99.90;;;;;;5075526;28;20040;-68
2022/04/21 03:14:40;;;;;;;7.28;4.93;;;7.80;99.90;;;;;;5058849;28;20420;-68
2022/04/21 03:17:07;;;;;;;8.77;5.38;;;8.10;99.90;;;;;;5093616;28;20083;-68
2022/04/21 03:19:33;;;;;;;7.82;5.10;;;7.90;99.90;;;;;;5075809;28;20047;-68
2022/04/21 03:24:44;;;;;;;6.80;5.50;;;7.90;99.90;;;;;;5093590;28;20110;-69
2022/04/21 03:27:10;;;;;;;6.78;5.55;;;7.90;99.90;;;;;;5075493;28;20040;-68
2022/04/21 03:29:39;;;;;;;7.75;5.35;;;7.70;99.90;;;;;;5075722;28;20056;-69
2022/04/21 03:32:13;;;;;;;8.18;5.90;;;7.80;99.90;;;;;;5093374;28;20037;-68
2022/04/21 03:34:40;;;;;;;8.10;5.32;;;8.50;99.90;;;;;;5093827;28;20055;-68
2022/04/21 03:37:07;;;;;;;7.93;5.55;;;7.80;99.90;;;;;;5093406;28;20087;-68
2022/04/21 03:39:34;;;;;;;7.55;5.50;;;8.40;99.90;;;;;;5075883;28;20360;-68
2022/04/21 03:42:01;;;;;;;8.10;5.65;;;7.60;99.90;;;;;;5075420;28;20047;-68
2022/04/21 03:44:27;;;;;;;8.18;5.15;;;7.60;99.90;;;;;;5093432;28;20158;-68
2022/04/21 03:46:57;;;;;;;9.07;5.95;;;7.60;99.90;;;;;;5093865;28;20040;-68
2022/04/21 03:49:27;;;;;;;8.27;5.32;;;7.50;99.90;;;;;;5075569;28;20044;-68
2022/04/21 03:51:53;;;;;;;10.45;5.95;;;7.40;99.90;;;;;;5093570;28;20048;-68
2022/04/21 03:54:19;;;;;;;8.93;6.05;;;7.70;99.90;;;;;;5094104;28;20055;-68
2022/04/21 03:56:45;;;;;;;7.20;5.30;;;7.40;99.90;;;;;;5093268;28;20044;-68
2022/04/21 03:59:11;;;;;;;8.65;5.68;;;7.40;99.90;;;;;;5075418;28;20257;-68
2022/04/21 04:01:37;;;;;;;9.02;5.47;;;7.50;99.90;;;;;;5075677;28;20148;-68
2022/04/21 04:04:03;;;;;;;7.47;5.80;;;7.50;99.90;;;;;;5093683;28;20489;-68
2022/04/21 04:11:57;;;;;;;8.60;5.45;;;7.30;99.90;;;;;;5075338;28;20079;-68
2022/04/21 04:14:23;;;;;;;7.80;5.60;;;7.40;99.90;;;;;;5075146;28;20399;-68
2022/04/21 04:16:48;;;;;;;9.43;5.93;;;7.50;99.90;;;;;;5093584;28;20380;-68
2022/04/21 04:19:14;;;;;;;9.20;6.30;;;7.30;99.90;;;;;;5075169;28;20040;-67
2022/04/21 04:21:40;;;;;;;8.10;5.70;;;7.20;99.90;;;;;;5075600;28;20040;-68
2022/04/21 04:24:06;;;;;;;11.45;6.22;;;7.60;99.90;;;;;;5075193;28;20044;-68
2022/04/21 04:26:34;;;;;;;8.98;5.75;;;7.30;99.90;;;;;;5094404;28;20067;-68
2022/04/21 04:29:00;;;;;;;9.32;6.10;;;7.40;99.90;;;;;;5078471;28;20052;-69
2022/04/21 04:31:26;;;;;;;7.28;5.53;;;7.20;99.90;;;;;;5096464;28;20499;-68
2022/04/21 04:33:51;;;;;;;8.75;6.38;;;7.30;99.90;;;;;;5078273;28;20051;-69
2022/04/21 04:36:17;;;;;;;7.63;5.75;;;7.70;99.90;;;;;;5096462;28;20040;-68
2022/04/21 04:38:48;;;;;;;9.20;6.15;;;7.90;99.90;;;;;;5096404;28;20044;-68
2022/04/21 04:43:58;;;;;;;8.63;5.53;;;7.10;99.90;;;;;;5096837;28;20063;-68
2022/04/21 04:46:37;;;;;;;10.00;5.95;;;7.20;99.90;;;;;;5096321;28;20048;-68
2022/04/21 04:49:05;;;;;;;9.00;6.28;;;7.10;99.90;;;;;;5078511;28;20048;-69
2022/04/21 04:51:31;;;;;;;8.48;6.05;;;7.40;99.90;;;;;;5078077;28;20044;-68
2022/04/21 04:53:57;;;;;;;7.68;5.53;;;7.40;99.90;;;;;;5096665;28;20372;-68
2022/04/21 04:56:23;;;;;;;10.27;6.43;;;7.80;99.90;;;;;;5096187;28;20391;-68
2022/04/21 04:58:49;;;;;;;10.88;6.38;;;7.40;99.90;;;;;;5095673;28;20044;-69
2022/04/21 05:01:26;;;;;;;7.68;5.43;;;7.60;99.90;;;;;;5096535;28;20131;-68
2022/04/21 05:03:59;;;;;;;8.77;6.28;;;7.50;99.90;;;;;;5096513;28;20445;-68
2022/04/21 05:06:24;;;;;;;7.95;5.65;;;7.30;99.90;;;;;;5079766;28;20048;-68
2022/04/21 05:08:50;;;;;;;8.05;5.50;;;7.30;99.90;;;;;;5078333;28;20438;-68
2022/04/21 05:11:16;;;;;;;11.13;6.10;;;7.90;99.90;;;;;;5095759;28;20043;-68
2022/04/21 05:13:42;;;;;;;8.63;5.80;;;7.70;99.90;;;;;;5095694;28;20109;-67
2022/04/21 05:16:08;;;;;;;8.13;5.65;;;7.50;99.90;;;;;;5096505;28;20043;-68
2022/04/21 05:18:34;;;;;;;8.38;5.50;;;7.60;99.90;;;;;;5096520;28;20484;-68
2022/04/21 05:21:00;;;;;;;8.20;5.65;;;7.30;99.90;;;;;;5077723;28;20425;-68
2022/04/21 05:23:30;;;;;;;7.45;5.22;;;7.40;99.90;;;;;;5095574;28;20044;-68
2022/04/21 05:25:56;;;;;;;7.75;5.43;;;7.80;99.90;;;;;;5095519;28;20051;-67
2022/04/21 05:28:24;;;;;;;6.50;5.15;;;7.50;99.90;;;;;;5095317;28;20060;-68
2022/04/21 05:30:58;;;;;;;8.82;5.18;;;7.50;99.90;;;;;;5095515;28;20507;-68
2022/04/21 05:33:26;;;;;;;8.50;5.70;;;7.50;99.90;;;;;;5077544;28;20090;-68
2022/04/21 05:35:54;;;;;;;7.80;4.90;;;7.60;99.90;;;;;;5095297;28;20069;-68
2022/04/21 05:38:21;;;;;;;7.63;5.15;;;7.60;99.90;;;;;;5094846;28;20172;-68
2022/04/21 05:40:48;;;;;;;7.35;5.22;;;7.60;99.90;;;;;;5095244;28;20048;-68
2022/04/21 05:43:18;;;;;;;8.30;5.35;;;7.70;99.90;;;;;;5094826;28;20497;-68
2022/04/21 05:45:45;;;;;;;8.73;4.88;;;7.70;99.90;;;;;;5095433;28;20063;-68
2022/04/21 05:48:12;;;;;;;7.68;4.68;;;7.70;99.90;;;;;;5095107;28;20122;-67
2022/04/21 05:50:39;;;;;;;8.45;4.80;;;7.70;99.90;;;;;;5094938;28;20054;-68
2022/04/21 05:53:06;;;;;;;9.55;4.95;;;8.00;99.90;;;;;;5094953;28;20075;-68
2022/04/21 05:55:35;;;;;;;6.65;4.63;;;7.80;99.90;;;;;;5094926;28;20130;-68
2022/04/21 05:58:01;;;;;;;6.13;4.78;;;7.90;99.90;;;;;;5077176;28;20052;-68
2022/04/21 06:00:26;;;;;;;5.65;4.30;;;7.90;99.90;;;;;;5094854;28;20054;-68
2022/04/21 06:02:52;;;;;;;6.63;4.88;;;8.10;99.90;;;;;;5094712;28;20140;-68
2022/04/21 06:05:18;;;;;;;6.68;5.10;;;8.50;99.90;;;;;;5094726;28;20040;-68
2022/04/21 06:07:44;;;;;;;6.97;4.78;;;8.00;99.90;;;;;;5094671;28;20044;-67
2022/04/21 06:10:09;;;;;;;7.68;4.47;;;8.10;99.90;;;;;;5076597;28;20118;-68
2022/04/21 06:12:36;;;;;;;8.38;4.70;;;8.30;99.90;;;;;;5094525;28;20093;-67
2022/04/21 06:15:02;;;;;;;7.85;4.18;;;8.10;99.90;;;;;;5094828;28;20070;-68
2022/04/21 06:17:28;;;;;;;7.28;4.40;;;8.20;99.90;;;;;;5077244;28;20040;-67
2022/04/21 06:19:55;;;;;;;6.97;4.40;;;8.30;99.90;;;;;;5076432;28;20495;-67
2022/04/21 06:22:20;;;;;;;8.20;4.10;;;8.20;99.90;;;;;;5077227;28;20071;-67
2022/04/21 06:24:46;;;;;;;7.55;4.47;;;8.30;99.90;;;;;;5076352;28;20464;-67
2022/04/21 06:27:12;;;;;;;7.25;4.47;;;8.60;99.90;;;;;;5094015;28;20465;-67
2022/04/21 06:29:38;;;;;;;6.35;4.43;;;8.40;99.90;;;;;;5094281;28;20176;-67
2022/04/21 06:32:04;;;;;;;6.70;4.25;;;8.60;99.90;;;;;;5094472;28;20044;-67
2022/04/21 06:34:32;;;;;;;7.00;4.32;;;8.40;99.90;;;;;;5094744;28;20357;-67
2022/04/21 06:36:59;;;;;;;6.63;4.25;;;8.90;99.90;;;;;;5076485;28;20040;-67
2022/04/21 06:39:25;;;;;;;7.05;4.75;;;8.70;99.90;;;;;;5075888;28;20507;-67
2022/04/21 06:41:50;;;;;;;8.50;4.20;;;8.80;99.90;;;;;;5094400;28;20075;-67
2022/04/21 06:49:44;;;;;;;4.80;3.65;;;9.00;99.90;;;;;;5078279;28;20075;-67
2022/04/21 06:52:10;;;;;;;4.68;3.38;;;8.70;99.90;;;;;;5093822;28;20036;-67
2022/04/21 06:54:36;;;;;;;6.68;4.38;;;8.80;99.90;;;;;;5093562;28;20500;-67
2022/04/21 06:57:01;;;;;;;4.43;3.70;;;8.90;99.90;;;;;;5093853;28;20492;-67
2022/04/21 06:59:27;;;;;;;5.85;3.53;;;8.90;99.90;;;;;;5093815;28;20480;-68
2022/04/21 07:01:53;;;;;;;6.85;3.85;;;9.00;99.90;;;;;;5093809;28;20126;-67
2022/04/21 07:04:20;;;;;;;5.47;3.25;;;9.00;99.90;;;;;;5076418;28;20039;-67
2022/04/21 07:06:46;;;;;;;4.70;3.33;;;9.10;99.90;;;;;;5093730;28;20051;-67
2022/04/21 07:09:12;;;;;;;3.58;2.60;;;9.40;99.90;;;;;;5075716;28;20043;-67
2022/04/21 07:11:38;;;;;;;4.60;3.40;;;9.20;99.90;;;;;;5095411;28;20044;-68
2022/04/21 07:14:04;;;;;;;4.38;3.00;;;9.30;99.90;;;;;;5075803;28;20044;-67
2022/04/21 07:16:30;;;;;;;3.83;2.53;;;9.60;99.90;;;;;;5093779;28;20048;-68
2022/04/21 07:18:56;;;;;;;5.07;2.70;;;9.40;99.90;;;;;;5059792;28;20135;-68
2022/04/21 07:21:22;;;;;;;4.30;2.60;;;9.50;99.90;;;;;;5093762;28;20523;-68
2022/04/21 07:23:49;;;;;;;3.40;2.40;;;9.80;99.90;;;;;;5093736;28;20083;-68
2022/04/21 07:26:15;;;;;;;3.60;2.25;;;9.60;99.90;;;;;;5076724;28;20388;-67
2022/04/21 07:28:43;;;;;;;3.55;2.42;;;9.80;99.90;;;;;;5093609;28;20056;-68
2022/04/21 07:31:08;;;;;;;5.70;2.90;;;10.00;99.90;;;;;;5076147;28;20044;-67
2022/04/21 07:33:34;;;;;;;3.67;2.20;;;9.90;99.90;;;;;;5077500;28;20075;-67
2022/04/21 07:36:00;;;;;;;3.13;2.15;;;10.10;99.90;;;;;;5042520;28;20353;-67
2022/04/21 07:38:25;;;;;;;3.50;2.53;;;9.90;99.90;;;;;;5093614;28;20044;-67
2022/04/21 07:40:53;;;;;;;5.22;2.08;;;10.20;99.90;;;;;;5093581;28;20048;-67
2022/04/21 07:43:20;;;;;;;4.47;2.50;;;10.10;99.90;;;;;;5075574;28;20044;-67
2022/04/21 07:45:49;;;;;;;4.68;1.88;;;10.10;99.90;;;;;;5094350;28;20576;-67
2022/04/21 07:48:15;;;;;;;3.97;1.90;;;10.20;99.90;;;;;;5058945;28;20048;-68
2022/04/21 07:50:41;;;;;;;2.80;1.77;;;10.30;99.90;;;;;;5093445;28;20426;-68
2022/04/21 07:53:13;;;;;;;2.25;1.67;;;10.40;99.90;;;;;;5058931;28;20044;-69
2022/04/21 07:55:39;;;;;;;3.22;1.73;;;10.60;99.90;;;;;;5076457;28;20422;-68
2022/04/21 07:58:06;;;;;;;3.55;1.85;;;10.60;99.90;;;;;;5058764;28;20040;-67
2022/04/21 08:00:36;;;;;;;2.72;1.58;;;10.50;99.90;;;;;;5094346;28;20595;-67
2022/04/21 08:03:03;;;;;;;3.60;1.60;;;10.60;99.90;;;;;;5096946;28;20550;-67
2022/04/21 08:05:30;;;;;;;2.75;1.80;;;10.70;99.90;;;;;;5098008;28;20047;-67
2022/04/21 08:07:57;;;;;;;2.95;1.67;;;10.80;99.90;;;;;;5079155;28;20044;-68
2022/04/21 08:10:24;;;;;;;2.30;1.58;;;10.80;99.90;;;;;;5079257;28;20044;-68
2022/04/21 08:12:53;;;;;;;2.03;1.63;;;10.80;99.90;;;;;;5062283;28;20084;-68
2022/04/21 08:15:26;;;;;;;5.63;1.83;;;10.90;99.90;;;;;;5078950;28;20040;-67
2022/04/21 08:17:54;;;;;;;2.45;1.65;;;10.90;99.90;;;;;;5078965;28;20048;-68
2022/04/21 08:20:20;;;;;;;3.40;1.30;;;11.20;99.90;;;;;;5096874;28;20044;-68
2022/04/21 08:22:46;;;;;;;2.00;1.40;;;11.10;99.90;;;;;;5078777;28;20096;-68
2022/04/21 08:33:25;;;;;;;2.83;1.38;;;11.40;99.90;;;;;;5079626;28;20044;-66
2022/04/21 08:35:57;;;;;;;2.78;2.00;;;11.50;99.90;;;;;;5096659;28;20046;-68
2022/04/21 08:38:28;;;;;;;2.72;1.67;;;11.50;99.90;;;;;;5096723;28;20110;-67
2022/04/21 08:40:58;;;;;;;2.80;1.65;;;11.50;99.90;;;;;;5061946;28;20048;-67
2022/04/21 08:43:30;;;;;;;3.22;1.58;;;11.60;99.90;;;;;;5096535;28;20055;-68
2022/04/21 08:45:56;;;;;;;2.45;1.60;;;11.80;99.90;;;;;;5062889;28;20043;-68
2022/04/21 08:48:25;;;;;;;2.95;1.70;;;11.90;99.90;;;;;;5078884;28;20094;-67
2022/04/21 08:50:51;;;;;;;3.85;1.70;;;11.80;99.90;;;;;;5077355;28;20501;-66
2022/04/21 08:53:19;;;;;;;2.50;1.58;;;11.80;99.90;;;;;;5095744;28;20102;-66
2022/04/21 08:55:47;;;;;;;2.70;1.67;;;11.90;99.90;;;;;;5095714;28;20040;-66
2022/04/21 08:58:13;;;;;;;4.65;2.03;;;12.00;99.90;;;;;;5077925;28;20101;-66
2022/04/21 09:00:41;;;;;;;3.72;2.00;;;12.10;99.90;;;;;;5077460;28;20055;-66
2022/04/21 09:03:08;;;;;;;2.83;2.10;;;12.10;99.90;;;;;;5095274;28;20095;-66
2022/04/21 09:05:34;;;;;;;2.53;1.70;;;12.20;99.90;;;;;;5077509;28;20044;-66
2022/04/21 09:08:01;;;;;;;3.15;2.00;;;12.20;99.90;;;;;;5077844;28;20467;-66
2022/04/21 09:10:28;;;;;;;2.88;1.80;;;12.30;99.90;;;;;;5095493;28;20119;-66
2022/04/21 09:12:57;;;;;;;4.38;2.30;;;12.40;99.90;;;;;;5094580;28;20133;-66
2022/04/21 09:15:24;;;;;;;3.00;2.10;;;12.40;99.90;;;;;;5094684;28;20052;-66
2022/04/21 09:17:51;;;;;;;4.82;1.90;;;12.50;99.90;;;;;;5095122;28;20505;-66
2022/04/21 09:20:19;;;;;;;2.67;1.92;;;13.20;99.90;;;;;;5095311;28;20052;-66
2022/04/21 09:23:06;;;;;;;3.03;2.05;;;12.60;99.90;;;;;;5095835;28;20044;-66
2022/04/21 09:25:47;;;;;;;2.58;2.00;;;12.70;99.90;;;;;;5094957;28;20048;-66
2022/04/21 09:28:39;;;;;;;3.40;2.10;;;12.70;99.90;;;;;;5076379;28;20144;-66
2022/04/21 09:31:09;;;;;;;1.75;1.50;;;12.80;99.90;;;;;;5090607;28;20048;-66
2022/04/21 09:33:37;;;;;;;2.58;1.50;;;12.70;99.90;;;;;;5094660;28;20136;-66
2022/04/21 09:36:07;;;;;;;2.58;1.70;;;12.90;99.90;;;;;;5094455;28;20127;-66
2022/04/21 09:38:34;;;;;;;2.30;1.60;;;12.90;99.90;;;;;;5094799;28;20059;-66
2022/04/21 09:41:06;;;;;;;4.03;2.08;;;12.80;99.90;;;;;;5076945;28;20052;-66
2022/04/21 09:43:37;;;;;;;3.47;1.40;;;13.00;99.90;;;;;;5095226;28;20122;-67
2022/04/21 09:46:22;;;;;;;3.13;1.77;;;13.00;99.90;;;;;;5094337;28;20101;-66
2022/04/21 09:48:55;;;;;;;4.03;1.90;;;13.10;99.90;;;;;;5094895;28;20071;-67
2022/04/21 09:51:25;;;;;;;2.60;1.65;;;13.10;99.90;;;;;;5094624;28;20039;-66
2022/04/21 09:53:58;;;;;;;3.00;1.73;;;13.20;99.90;;;;;;5094766;28;20106;-66
2022/04/21 09:56:34;;;;;;;3.25;1.80;;;13.20;99.90;;;;;;5094604;28;20480;-66
2022/04/21 09:59:02;;;;;;;3.03;2.10;;;13.00;99.90;;;;;;5076630;28;20048;-66
2022/04/21 10:01:28;;;;;;;2.40;1.52;;;13.30;99.90;;;;;;5094531;28;20048;-66
2022/04/21 10:03:55;;;;;;;1.85;1.58;;;13.40;99.20;;;;;;5094445;28;20052;-67
2022/04/21 10:06:22;;;;;;;2.95;2.15;;;13.40;98.30;;;;;;5075878;28;20048;-66
2022/04/21 10:08:51;;;;;;;2.85;1.88;;;13.50;98.20;;;;;;5094370;28;20077;-66
2022/04/21 10:11:24;;;;;;;2.90;2.00;;;13.50;97.90;;;;;;5093954;28;20584;-66
2022/04/21 10:13:55;;;;;;;2.28;1.75;;;13.50;97.30;;;;;;5094549;28;20044;-66
2022/04/21 10:16:26;;;;;;;3.72;1.98;;;13.60;97.70;;;;;;5093468;28;20048;-66
2022/04/21 10:18:54;;;;;;;3.03;1.80;;;13.60;96.90;;;;;;5093633;28;20495;-66
2022/04/21 10:21:36;;;;;;;2.60;1.80;;;13.70;96.80;;;;;;5093999;28;20136;-66
2022/04/21 10:24:03;;;;;;;2.10;1.65;;;13.70;96.90;;;;;;5093064;28;20514;-66
2022/04/21 10:26:40;;;;;;;2.33;1.48;;;13.80;96.80;;;;;;5093675;28;20054;-66
2022/04/21 10:29:21;;;;;;;3.35;1.50;;;13.80;96.10;;;;;;5094559;28;20055;-66
2022/04/21 10:31:50;;;;;;;2.92;1.40;;;13.90;95.60;;;;;;5094399;28;20093;-68
2022/04/21 10:34:46;;;;;;;1.65;1.48;;;14.00;96.10;;;;;;5094404;28;20329;-66
2022/04/21 10:37:24;;;;;;;3.05;1.50;;;14.00;95.90;;;;;;5092036;28;20056;-66
2022/04/21 10:40:06;;;;;;;2.63;1.67;;;14.10;95.70;;;;;;5075059;28;20055;-66
2022/04/21 10:42:55;;;;;;;2.50;1.80;;;14.10;95.00;;;;;;5075350;28;20054;-66
2022/04/21 10:45:32;;;;;;;2.10;1.35;;;14.10;94.90;;;;;;5074955;28;20040;-67
2022/04/21 10:48:12;;;;;;;2.38;1.20;;;14.10;95.00;;;;;;5076045;28;20384;-67
2022/04/21 10:50:43;;;;;;;2.92;1.85;;;14.20;95.00;;;;;;5076112;28;20047;-67
2022/04/21 10:58:39;;;;;;;4.35;1.83;;;14.30;94.10;;;;;;5061888;28;20048;-67
2022/04/21 11:01:13;;;;;;;2.13;1.48;;;14.40;93.40;;;;;;5092965;28;20446;-69
2022/04/21 11:03:44;;;;;;;3.15;1.50;;;14.40;93.10;;;;;;5075125;28;20089;-67
2022/04/21 11:06:14;;;;;;;3.75;1.73;;;14.40;92.50;;;;;;5093777;28;20051;-67
2022/04/21 11:08:41;;;;;;;2.13;1.58;;;14.40;91.80;;;;;;5093007;28;20052;-67
2022/04/21 11:11:07;;;;;;;2.60;1.98;;;14.40;92.30;;;;;;5093037;28;20496;-67
2022/04/21 11:13:47;;;;;;;2.50;1.48;;;14.40;91.80;;;;;;5092659;28;20136;-67
2022/04/21 11:16:45;;;;;;;2.85;1.60;;;14.40;92.50;;;;;;5092595;28;20124;-67
2022/04/21 11:19:29;;;;;;;2.85;1.77;;;14.30;92.70;;;;;;5074744;28;20091;-68
2022/04/21 11:21:56;;;;;;;3.65;1.48;;;14.30;92.30;;;;;;5075113;28;20044;-67
2022/04/21 11:24:22;;;;;;;3.63;1.92;;;14.30;92.00;;;;;;5093071;28;20500;-68
2022/04/21 11:27:00;;;;;;;1.88;1.42;;;14.30;92.40;;;;;;5092781;28;20512;-66
2022/04/21 11:29:26;;;;;;;2.55;1.95;;;14.00;92.40;;;;;;5075951;28;20542;-66
2022/04/21 11:31:59;;;;;;;5.55;2.28;;;14.20;92.20;;;;;;5092899;28;20504;-66
2022/04/21 11:34:26;;;;;;;2.80;1.80;;;14.20;92.40;;;;;;5075537;28;20368;-66
2022/04/21 11:37:01;;;;;;;2.72;2.13;;;14.20;92.20;;;;;;5095916;28;20118;-66
2022/04/21 11:39:27;;;;;;;2.70;1.63;;;14.30;92.30;;;;;;5097099;28;20052;-66
2022/04/21 11:41:53;;;;;;;2.42;1.88;;;14.30;92.60;;;;;;5079371;28;20040;-66
2022/04/21 11:44:23;;;;;;;2.33;2.13;;;14.30;92.60;;;;;;5080224;28;20044;-66
2022/04/21 11:46:49;;;;;;;3.92;2.20;;;14.50;92.70;;;;;;5097127;28;20047;-66
2022/04/21 11:49:15;;;;;;;3.35;2.15;;;14.60;92.20;;;;;;5097351;28;20055;-66
2022/04/21 11:51:42;;;;;;;3.33;1.63;;;14.70;91.70;;;;;;5079220;28;20047;-66
2022/04/21 11:54:10;;;;;;;2.35;2.00;;;14.80;90.80;;;;;;5097261;28;20052;-66
2022/04/21 11:56:37;;;;;;;4.55;2.05;;;14.80;91.40;;;;;;5097189;28;20089;-66
2022/04/21 11:59:10;;;;;;;2.20;2.00;;;14.90;91.80;;;;;;5097847;28;20052;-66
2022/04/21 12:07:14;;;;;;;3.67;1.95;;;14.80;90.40;;;;;;5097559;28;20048;-65
2022/04/21 12:09:41;;;;;;;2.72;1.77;;;14.80;90.50;;;;;;5062641;28;20081;-66
2022/04/21 12:12:08;;;;;;;2.97;1.98;;;14.80;90.70;;;;;;5096785;28;20047;-67
2022/04/21 12:14:35;;;;;;;2.72;2.10;;;14.90;90.60;;;;;;5097082;28;20044;-66
2022/04/21 12:17:04;;;;;;;3.92;2.10;;;14.90;90.70;;;;;;5097043;28;20052;-66
2022/04/21 12:19:42;;;;;;;2.92;2.22;;;15.00;90.40;;;;;;5097761;28;20040;-67
2022/04/21 12:22:11;;;;;;;3.75;2.20;;;15.10;90.10;;;;;;5096909;28;20048;-67
2022/04/21 12:24:47;;;;;;;2.50;2.10;;;15.10;89.70;;;;;;5097398;28;20044;-67
2022/04/21 12:27:15;;;;;;;3.67;2.28;;;15.10;90.20;;;;;;5096303;28;20063;-66
2022/04/21 12:29:53;;;;;;;2.85;1.95;;;15.10;90.30;;;;;;5096737;28;20048;-66
2022/04/21 12:32:25;;;;;;;3.55;2.38;;;15.30;90.10;;;;;;5078672;28;20051;-67
2022/04/21 12:34:55;;;;;;;4.03;2.17;;;15.30;89.60;;;;;;5079056;28;20055;-66
2022/04/21 12:37:35;;;;;;;3.55;2.38;;;15.30;89.50;;;;;;5096723;28;20051;-66
2022/04/21 12:40:08;;;;;;;2.53;2.30;;;15.40;89.90;;;;;;5097171;28;20083;-66
2022/04/21 12:42:34;;;;;;;;;;;15.40;88.40;;;;;;5078934;28;20044;-66
2022/04/21 12:45:01;;;;;;;4.97;2.35;;;15.50;89.60;;;;;;5078895;28;19920;-66
2022/04/21 12:47:27;;;;;;;3.60;2.30;;;15.40;89.30;;;;;;5077370;28;20127;-67
2022/04/21 12:50:01;;;;;;;4.45;2.75;;;15.50;88.90;;;;;;5079298;28;20043;-66
2022/04/21 12:52:27;;;;;;;5.57;2.90;;;15.60;87.60;;;;;;5078236;28;20036;-67
2022/04/21 12:54:53;;;;;;;5.45;2.67;;;15.50;87.00;;;;;;5096309;28;20040;-68
2022/04/21 12:57:18;;;;;;;3.83;2.75;;;15.50;86.20;;;;;;5096249;28;20051;-66
2022/04/21 12:59:47;;;;;;;3.47;2.25;;;15.70;85.70;;;;;;5078196;28;20132;-66
2022/04/21 13:02:16;;;;;;;2.88;2.67;;;15.60;85.90;;;;;;5096714;28;20102;-66
2022/04/21 13:04:41;;;;;;;3.28;2.53;;;15.60;86.90;;;;;;5078560;28;20040;-66
2022/04/21 13:07:11;;;;;;;5.00;3.38;;;15.60;88.70;;;;;;5061861;28;20044;-67
2022/04/21 13:09:37;;;;;;;3.67;3.25;;;15.70;89.30;;;;;;5096038;28;20039;-67
2022/04/21 13:12:04;;;;;;;3.55;2.97;;;15.70;89.50;;;;;;5077606;28;20047;-66
2022/04/21 13:14:29;;;;;;;4.63;3.17;;;15.70;88.60;;;;;;5077759;28;20051;-66
2022/04/21 13:16:55;;;;;;;4.90;3.10;;;15.80;89.60;;;;;;5078175;28;20123;-66
2022/04/21 13:19:21;;;;;;;4.88;3.78;;;15.80;88.30;;;;;;5096123;28;20051;-65
2022/04/21 13:21:53;;;;;;;4.93;3.60;;;15.80;89.00;;;;;;5095748;28;20042;-65
2022/04/21 13:24:23;;;;;;;3.70;3.22;;;15.80;87.80;;;;;;5061491;28;20084;-65
2022/04/21 13:26:50;;;;;;;5.45;3.50;;;15.80;87.90;;;;;;5077659;28;20048;-66
2022/04/21 13:29:16;;;;;;;3.65;3.10;;;15.80;87.20;;;;;;5096089;28;20060;-66
2022/04/21 13:34:26;;;;;;;5.88;4.05;;;15.80;87.10;;;;;;5095810;28;20476;-66
2022/04/21 13:36:51;;;;;;;5.35;3.65;;;15.80;88.00;;;;;;5077503;28;20135;-66
2022/04/21 13:39:18;;;;;;;7.75;4.20;;;15.90;89.10;;;;;;5095441;28;20043;-66
2022/04/21 13:41:44;;;;;;;5.20;3.80;;;15.90;89.70;;;;;;5095140;28;20472;-66
2022/04/21 13:44:10;;;;;;;4.50;3.88;;;15.90;89.30;;;;;;5094917;28;20400;-66